Philadelphia, Pennsylvania
Traffic Map
Current Weather Conditions
Philadelphia, Pennsylvania
Overcast
Overcast
42°
Feels Like: 38°
Wind Chill: 38° Ceiling: 20000
Heat Index: 42° Visibility: 10mi
Dew Point: 33° Wind: 7mph
Humidity: 70% Direction: 200° (SSW)
Pressure: 30.16in Gusts: 0mph
Raw Report DataKPHL 220354Z 20006KT 10SM OVC200 06/01 A3016 RMK SLP213 T00560006
Traffic Incident Summary
Active as of:
Severity:
Category:
InformationThere was an issue retrieving the traffic information for this location. Please try a different location or try again shortly.
Advertisements
Track Severe Weather on mobile